YSGR weather

South Grafton Airport
New South Wales, Australia

Public forecast

Using degrees Celsius for public forecast. Weather courtesy of forecast.io.

METAR (pilot weather report)

Closest report is Grafton Airport, 6.1 nm (11.4 km) ESE. Retrieved 2019/03/22 21:00 UTC (59 minutes ago):

YGFN 222100Z AUTO 15001KT 9999 // NCD 20/20 Q1015

TAF (pilot weather forecast)

Closest forecast is Gold Coast Airport, 97.5 nm (180.6 km) NNE. Retrieved 2019/03/22 18:00 UTC (4 hours ago):

TAF YBCG 221703Z 2218/2318 18005KT 9999 SCT020 FM222200 33006KT 9999 SCT025 FM230000 02012KT 9999 FEW030 FM231100 34008KT 9999 FEW020